Decoded Metar for SAOC (RIO CUARTO in ARGENTINA) (IATA:RCU) | Meteo·Mobile Aviation Weather
aviador You're here:

SAOC Decoded Metar

RIO CUARTO in ARGENTINA
Report Time2018-11-18 01:00:00
UTC Time2018-11-18 01:37:46
Flight Rules vfr VFR
Wind180° at 06 kt
W.Decomp.*RWY 18: 6.0 kt HW 0.2 kt RCW
RWY 23: 4.0 kt HW 4.5 kt LCW
W.Rank180° ranks 2
Current wind is below 180° avg. (10.2)
Visibility9999 m
Phenomena:N/A
Clouds:Scattered 030 Hf
Expected CloudBase > 5,200 ft AGL from Temp-Dew spread
CeilingNone
Temp17°C (ISA +5)
Dew Point04°C (42% RH)
AAT13.5°C
QNH1017 hPa
Density Alt1,919 ft
Elevation1,381 ft
Report Wrong Elevation
Raw Report
METAR SAOC 180100Z 18006KT 9999 SCT030 17/04 Q1017=

Extra information for SAOC:More info

Metar Taf Metar & Taf Last 4 Metars F.Rules Stats Wind Profile Meteogram Temp Stats Airport Information Weather charts Add Link Nearby VenuesMetar ALERT Operation Metar Decoded Social comments